Time;durP1;ratioP1;P1;durP2;ratioP2;P2;SDS_P1;SDS_P2;PMS_P1;PMS_P2;Temp;Humidity;BMP_temperature;BMP_pressure;BME280_temperature;BME280_humidity;BME280_pressure;Samples;Min_cycle;Max_cycle;Signal;HPM_P1;HPM_P2
2023/04/26 01:09:44;;;;;;;7.50;2.50;;;;;;;8.98;51.04;101875.00;5094848;28;20421;-63
2023/04/26 01:12:13;;;;;;;19.75;3.00;;;;;;;8.98;50.38;101883.03;5101848;28;20048;-63
2023/04/26 01:14:40;;;;;;;6.45;2.95;;;;;;;8.97;50.56;101884.06;5101723;28;20062;-63
2023/04/26 01:17:08;;;;;;;5.97;2.92;;;;;;;8.97;50.57;101889.41;5097092;28;20101;-63
2023/04/26 01:19:37;;;;;;;5.85;2.33;;;;;;;8.94;50.37;101877.22;5098110;28;20080;-63
2023/04/26 01:22:04;;;;;;;7.63;2.83;;;;;;;8.92;51.14;101879.25;5102574;28;20324;-63
2023/04/26 01:24:36;;;;;;;5.78;3.20;;;;;;;8.91;50.48;101877.59;5094000;28;20072;-62
2023/04/26 01:27:04;;;;;;;8.57;3.17;;;;;;;8.90;50.95;101883.13;5100724;28;20541;-62
2023/04/26 01:29:32;;;;;;;10.30;2.70;;;;;;;8.90;50.37;101885.81;5101572;28;20058;-62
2023/04/26 01:31:59;;;;;;;5.28;2.83;;;;;;;8.90;50.36;101885.81;5102014;28;20072;-63
2023/04/26 01:41:39;;;;;;;6.03;3.10;;;;;;;8.82;51.35;101886.75;5024311;28;20044;-61
2023/04/26 01:44:07;;;;;;;13.27;2.83;;;;;;;8.82;51.00;101889.44;5021400;28;20081;-63
2023/04/26 01:46:35;;;;;;;8.15;2.28;;;;;;;8.78;51.24;101890.81;5025971;28;20084;-63
2023/04/26 01:49:03;;;;;;;6.90;2.47;;;;;;;8.79;50.33;101889.78;5019827;28;20099;-62
2023/04/26 01:51:31;;;;;;;8.82;2.60;;;;;;;8.77;50.97;101883.78;5018800;28;20148;-63
2023/04/26 01:53:59;;;;;;;5.32;2.47;;;;;;;8.77;50.64;101878.41;5018847;28;20080;-62
2023/04/26 01:56:26;;;;;;;6.65;2.85;;;;;;;8.74;50.69;101876.94;5018682;28;20109;-62
2023/04/26 01:58:56;;;;;;;11.05;2.80;;;;;;;8.72;50.93;101884.34;5019433;28;20081;-63
2023/04/26 02:01:24;;;;;;;8.27;2.85;;;;;;;8.70;50.83;101883.69;5020445;28;20058;-63
2023/04/26 02:03:52;;;;;;;8.07;2.65;;;;;;;8.70;51.39;101885.53;5016357;28;20045;-63
2023/04/26 02:06:20;;;;;;;7.18;3.00;;;;;;;8.69;51.21;101884.69;5015575;28;20080;-63
2023/04/26 02:08:48;;;;;;;5.80;2.60;;;;;;;8.67;50.86;101886.72;5014016;28;20129;-62
2023/04/26 02:11:16;;;;;;;5.78;2.67;;;;;;;8.66;51.26;101879.75;5019607;28;20045;-62
2023/04/26 02:13:44;;;;;;;4.63;2.60;;;;;;;8.65;51.35;101883.44;5030335;28;20550;-62
2023/04/26 02:16:14;;;;;;;11.52;3.63;;;;;;;8.62;50.69;101880.28;5089984;28;20040;-62
2023/04/26 02:18:43;;;;;;;9.25;3.03;;;;;;;8.61;50.42;101884.00;5094833;28;20071;-62
2023/04/26 02:21:11;;;;;;;6.45;2.60;;;;;;;8.60;50.92;101890.38;5094815;28;20040;-63
2023/04/26 02:23:39;;;;;;;6.00;3.22;;;;;;;8.60;51.17;101882.31;5100798;28;20068;-63
2023/04/26 02:26:07;;;;;;;3.55;2.05;;;;;;;8.58;51.38;101884.34;5099594;28;20044;-62
2023/04/26 02:28:34;;;;;;;7.93;2.83;;;;;;;8.59;51.12;101880.66;5100002;28;20214;-63
2023/04/26 02:31:02;;;;;;;7.32;2.90;;;;;;;8.54;51.23;101875.03;5099882;28;20158;-62
2023/04/26 02:33:32;;;;;;;8.27;2.50;;;;;;;8.55;50.45;101876.69;5098952;28;20497;-63
2023/04/26 02:36:03;;;;;;;6.60;3.10;;;;;;;8.49;50.89;101867.53;5098784;28;20110;-63
2023/04/26 02:38:30;;;;;;;10.18;3.60;;;;;;;8.50;51.51;101874.56;5100892;28;20071;-63
2023/04/26 02:40:59;;;;;;;6.35;2.50;;;;;;;8.48;51.26;101874.75;5100369;28;20076;-63
2023/04/26 02:43:27;;;;;;;7.30;3.17;;;;;;;8.48;51.03;101873.91;5094960;28;20075;-62
2023/04/26 02:45:57;;;;;;;3.80;2.42;;;;;;;8.48;51.00;101873.91;5099001;28;20047;-63
2023/04/26 02:48:25;;;;;;;9.40;2.75;;;;;;;8.45;51.27;101872.44;5101457;28;20059;-64
2023/04/26 02:50:54;;;;;;;6.15;2.60;;;;;;;8.44;50.99;101878.78;5099587;28;20071;-63
2023/04/26 02:53:22;;;;;;;5.88;2.28;;;;;;;8.43;50.76;101877.13;5100262;28;20086;-63
2023/04/26 02:55:50;;;;;;;9.02;2.90;;;;;;;8.42;50.77;101864.75;5100190;28;20048;-63
2023/04/26 02:58:17;;;;;;;7.15;3.35;;;;;;;8.43;51.33;101869.09;5100465;28;20054;-63
2023/04/26 03:00:47;;;;;;;7.65;2.53;;;;;;;8.42;50.88;101859.41;5097325;28;20040;-63
2023/04/26 03:03:15;;;;;;;9.93;2.70;;;;;;;8.42;50.86;101859.41;5091222;28;20052;-63
2023/04/26 03:05:43;;;;;;;6.65;3.03;;;;;;;8.42;51.72;101862.06;5093702;28;20245;-63
2023/04/26 03:08:12;;;;;;;5.82;2.72;;;;;;;8.42;50.39;101859.41;5098374;28;20059;-63
2023/04/26 03:10:40;;;;;;;6.18;2.80;;;;;;;8.41;50.75;101860.41;5090925;28;20060;-63
2023/04/26 03:13:08;;;;;;;7.85;3.25;;;;;;;8.41;51.19;101859.56;5092607;28;20062;-63
2023/04/26 03:15:35;;;;;;;6.13;3.00;;;;;;;8.39;51.59;101853.56;5094322;28;21571;-63
2023/04/26 03:18:03;;;;;;;7.47;3.10;;;;;;;8.32;50.81;101847.25;5096557;28;20044;-63
2023/04/26 03:20:31;;;;;;;4.78;2.92;;;;;;;8.38;51.15;101867.97;5097116;28;20585;-63
2023/04/26 03:22:59;;;;;;;7.20;2.95;;;;;;;8.34;51.07;101864.84;5091346;28;20072;-64
2023/04/26 03:25:28;;;;;;;6.70;3.05;;;;;;;8.36;50.31;101861.97;5090762;28;20044;-62
2023/04/26 03:27:56;;;;;;;6.32;2.78;;;;;;;8.35;50.61;101858.47;5097887;28;20051;-63
2023/04/26 03:30:23;;;;;;;6.82;3.00;;;;;;;8.32;51.04;101847.25;5096823;28;20187;-63
2023/04/26 03:32:52;;;;;;;6.60;2.67;;;;;;;8.33;51.07;101859.66;5095259;28;20112;-63
2023/04/26 03:35:19;;;;;;;5.97;3.00;;;;;;;8.28;51.04;101849.47;5102196;28;20628;-62
2023/04/26 03:37:47;;;;;;;7.25;3.25;;;;;;;8.32;51.15;101858.78;5098135;28;20143;-62
2023/04/26 03:40:15;;;;;;;6.60;3.28;;;;;;;8.30;51.47;101850.09;5102734;28;20052;-63
2023/04/26 03:42:45;;;;;;;7.75;3.05;;;;;;;8.28;51.08;101845.94;5097191;28;20075;-63
2023/04/26 03:45:13;;;;;;;5.00;2.83;;;;;;;8.27;51.33;101850.47;5100366;28;20111;-62
2023/04/26 03:47:40;;;;;;;7.10;3.58;;;;;;;8.27;51.13;101847.78;5098377;28;20108;-64
2023/04/26 03:50:09;;;;;;;10.45;3.85;;;;;;;8.27;51.29;101852.31;5102685;28;20044;-64
2023/04/26 03:52:36;;;;;;;9.10;3.17;;;;;;;8.25;51.16;101849.00;5090246;28;20083;-63
2023/04/26 03:55:08;;;;;;;5.95;3.00;;;;;;;8.23;50.97;101849.16;5100289;28;20054;-63
2023/04/26 03:57:35;;;;;;;4.55;3.00;;;;;;;8.22;51.26;101857.38;5100987;28;20052;-63
2023/04/26 04:00:08;;;;;;;6.60;3.47;;;;;;;8.20;50.63;101849.53;5100204;28;20057;-63
2023/04/26 04:02:36;;;;;;;8.10;3.50;;;;;;;8.19;51.16;101853.22;5101612;28;20411;-63
2023/04/26 04:05:05;;;;;;;14.98;3.55;;;;;;;8.16;51.50;101857.09;5097469;28;20072;-63
2023/04/26 04:07:33;;;;;;;6.03;3.08;;;;;;;8.17;51.60;101860.59;5098577;28;20072;-63
2023/04/26 04:10:01;;;;;;;8.07;3.60;;;;;;;8.14;51.08;101852.94;5101430;28;20074;-64
2023/04/26 04:12:29;;;;;;;6.55;2.88;;;;;;;8.13;51.03;101853.94;5101240;28;20080;-62
2023/04/26 04:14:56;;;;;;;8.88;3.15;;;;;;;8.05;51.44;101844.16;5101052;28;20056;-62
2023/04/26 04:17:25;;;;;;;6.72;3.03;;;;;;;8.11;50.90;101858.66;5100727;28;20501;-62
2023/04/26 04:19:53;;;;;;;11.50;3.92;;;;;;;8.10;51.67;101857.00;5097655;28;20062;-63
2023/04/26 04:22:21;;;;;;;7.65;3.00;;;;;;;8.07;50.84;101852.81;5101489;28;20044;-63
2023/04/26 04:24:49;;;;;;;9.23;3.65;;;;;;;8.06;50.94;101853.84;5098107;28;20553;-62
2023/04/26 04:27:16;;;;;;;9.75;3.58;;;;;;;8.08;51.27;101853.66;5097813;28;21408;-63
2023/04/26 04:29:45;;;;;;;7.88;3.45;;;;;;;8.06;51.39;101856.53;5102148;28;20054;-63
2023/04/26 04:32:13;;;;;;;7.85;3.35;;;;;;;8.04;50.92;101858.53;5093660;28;20079;-62
2023/04/26 04:34:43;;;;;;;7.93;3.50;;;;;;;8.03;51.56;101864.06;5102296;28;20130;-61
2023/04/26 04:37:21;;;;;;;10.95;3.31;;;;;;;8.03;51.45;101856.88;5100409;28;10001038;-64
2023/04/26 04:39:49;;;;;;;8.75;4.07;;;;;;;8.00;51.03;101857.25;5097872;28;20268;-63
2023/04/26 04:42:17;;;;;;;6.60;3.35;;;;;;;7.99;51.19;101868.13;5096147;28;20050;-63
2023/04/26 04:44:45;;;;;;;7.10;3.63;;;;;;;7.97;51.14;101862.94;5092053;28;20139;-63
2023/04/26 04:47:14;;;;;;;11.70;4.05;;;;;;;7.96;51.74;101871.16;5091010;28;20048;-64
2023/04/26 04:49:43;;;;;;;11.48;3.88;;;;;;;7.98;51.15;101871.81;5089417;28;20395;-64
2023/04/26 04:52:10;;;;;;;6.40;3.58;;;;;;;7.97;51.47;101867.47;5092541;28;20067;-62
2023/04/26 04:54:38;;;;;;;9.50;4.00;;;;;;;7.96;51.90;101876.50;5092113;28;20051;-60
2023/04/26 04:57:06;;;;;;;8.02;5.13;;;;;;;7.95;52.09;101878.34;5090862;28;20052;-63
2023/04/26 04:59:34;;;;;;;9.63;4.15;;;;;;;7.95;51.29;101874.84;5096785;28;20052;-62
2023/04/26 05:02:02;;;;;;;8.20;4.07;;;;;;;7.94;51.18;101881.22;5093379;28;20059;-63
2023/04/26 05:04:32;;;;;;;12.00;4.50;;;;;;;7.94;51.67;101883.91;5090948;28;20048;-62
2023/04/26 05:07:02;;;;;;;7.38;3.65;;;;;;;7.93;52.29;101882.22;5097505;28;20044;-62
2023/04/26 05:09:30;;;;;;;8.52;3.38;;;;;;;7.93;52.08;101883.06;5096325;28;20673;-62
2023/04/26 05:11:58;;;;;;;7.38;3.85;;;;;;;7.93;52.05;101882.22;5097225;28;20050;-62
2023/04/26 05:14:25;;;;;;;6.57;3.88;;;;;;;7.93;51.94;101877.72;5087411;28;20360;-63
2023/04/26 05:16:53;;;;;;;9.45;4.40;;;;;;;7.96;51.58;101880.03;5092442;28;20083;-62
2023/04/26 05:19:21;;;;;;;7.93;3.97;;;;;;;7.93;51.97;101874.19;5084986;28;20050;-62
2023/04/26 05:21:49;;;;;;;12.55;4.40;;;;;;;7.96;52.44;101887.22;5090328;28;20086;-63
2023/04/26 05:24:18;;;;;;;15.63;5.28;;;;;;;7.97;52.09;101884.38;5085740;28;20082;-63
2023/04/26 05:26:45;;;;;;;9.20;4.38;;;;;;;7.96;52.29;101884.53;5094841;28;20058;-62
2023/04/26 05:29:13;;;;;;;9.25;4.50;;;;;;;7.95;51.62;101889.06;5095308;28;20052;-62
2023/04/26 05:31:41;;;;;;;11.13;4.93;;;;;;;7.94;52.39;101890.06;5097633;28;20040;-62
2023/04/26 05:34:09;;;;;;;14.80;5.47;;;;;;;7.94;51.90;101884.72;5088420;28;20048;-62
2023/04/26 05:36:36;;;;;;;11.75;4.50;;;;;;;7.94;52.26;101890.06;5094346;28;20044;-62
2023/04/26 05:39:05;;;;;;;11.35;4.68;;;;;;;7.95;52.12;101893.59;5097067;28;20063;-63
2023/04/26 05:41:34;;;;;;;10.13;4.72;;;;;;;7.93;52.14;101893.75;5094789;28;20155;-62
2023/04/26 05:44:02;;;;;;;9.50;5.03;;;;;;;7.95;52.24;101893.59;5088773;28;20059;-62
2023/04/26 05:46:30;;;;;;;8.75;5.07;;;;;;;7.93;52.18;101893.75;5095796;28;20108;-61
2023/04/26 05:48:58;;;;;;;12.70;5.82;;;;;;;7.91;52.38;101898.47;5082471;28;20134;-64
2023/04/26 05:51:26;;;;;;;11.52;4.72;;;;;;;7.92;52.96;101892.09;5100604;28;20043;-62
2023/04/26 05:53:54;;;;;;;16.33;6.03;;;;;;;7.95;52.39;101896.25;5084873;28;20067;-62
2023/04/26 05:56:23;;;;;;;12.60;5.20;;;;;;;7.95;52.42;101896.25;5089741;28;20036;-63
2023/04/26 05:58:52;;;;;;;10.15;5.38;;;;;;;7.94;53.13;101894.59;5095340;28;20103;-62
2023/04/26 06:01:20;;;;;;;10.70;5.18;;;;;;;7.95;52.31;101886.38;5083922;28;20064;-62
2023/04/26 06:03:48;;;;;;;8.05;5.03;;;;;;;7.96;52.81;101888.06;5098514;28;20048;-63
2023/04/26 06:06:17;;;;;;;10.10;4.82;;;;;;;7.97;52.95;101899.59;5089297;28;20107;-61
2023/04/26 06:08:45;;;;;;;10.07;5.60;;;;;;;7.95;53.14;101891.75;5100084;28;20116;-62
2023/04/26 06:11:12;;;;;;;12.63;5.93;;;;;;;7.97;52.93;101894.25;5096442;28;20537;-62
2023/04/26 06:13:40;;;;;;;11.50;5.53;;;;;;;7.99;52.86;101894.91;4737352;28;10000354;-63
2023/04/26 06:16:09;;;;;;;11.25;5.60;;;;;;;7.99;52.60;101902.94;5094429;28;20122;-62
2023/04/26 06:18:37;;;;;;;14.70;6.30;;;;;;;8.01;53.45;101912.44;5097652;28;20083;-62
2023/04/26 06:21:05;;;;;;;13.38;5.57;;;;;;;8.03;53.50;101912.25;5094429;28;20086;-62
2023/04/26 06:23:33;;;;;;;14.02;5.90;;;;;;;7.98;53.26;101910.13;5097540;28;20048;-64
2023/04/26 06:26:01;;;;;;;15.73;6.97;;;;;;;7.99;54.16;101905.59;5094881;28;20074;-61
2023/04/26 06:28:29;;;;;;;13.95;6.47;;;;;;;8.02;53.48;101907.91;5097662;28;20054;-61
2023/04/26 06:30:56;;;;;;;11.68;6.55;;;;;;;8.03;53.79;101912.25;5094451;28;20048;-61
2023/04/26 06:33:25;;;;;;;15.32;5.88;;;;;;;8.05;54.21;101918.28;5096420;28;20044;-62
2023/04/26 06:35:53;;;;;;;12.32;6.30;;;;;;;8.06;53.82;101917.25;5091283;28;20048;-64
2023/04/26 06:38:21;;;;;;;11.57;6.05;;;;;;;8.06;54.10;101927.97;5091040;28;20493;-64
2023/04/26 06:40:49;;;;;;;12.57;5.82;;;;;;;8.06;53.56;101926.13;5096151;28;20051;-65
2023/04/26 06:43:16;;;;;;;14.93;6.80;;;;;;;8.07;53.36;101926.97;5095079;28;20054;-65
2023/04/26 06:45:44;;;;;;;10.65;6.18;;;;;;;8.09;54.13;101927.63;5090739;28;20058;-65
2023/04/26 06:48:12;;;;;;;10.45;5.50;;;;;;;8.10;54.27;101927.44;5092015;28;20040;-65
2023/04/26 06:50:41;;;;;;;12.07;5.95;;;;;;;8.13;53.99;101927.06;5092228;28;20080;-63
2023/04/26 06:53:09;;;;;;;15.90;5.97;;;;;;;8.19;53.61;101927.38;5094895;28;20075;-64
2023/04/26 06:55:36;;;;;;;12.32;5.55;;;;;;;8.32;53.45;101919.56;5097281;28;20424;-66
2023/04/26 06:58:04;;;;;;;13.85;6.72;;;;;;;8.45;53.19;101925.16;5100203;28;20076;-65
2023/04/26 07:00:32;;;;;;;9.55;4.90;;;;;;;8.56;52.59;101922.06;5094325;28;20549;-64
2023/04/26 07:03:03;;;;;;;11.85;4.97;;;;;;;8.73;52.54;101925.38;5086281;28;20072;-65
2023/04/26 07:05:31;;;;;;;9.93;4.90;;;;;;;8.89;51.89;101919.84;5095741;28;20052;-65
2023/04/26 07:08:00;;;;;;;12.63;5.25;;;;;;;9.13;51.01;101924.91;5097162;28;20243;-63
2023/04/26 07:10:28;;;;;;;8.40;5.25;;;;;;;9.32;51.20;101920.00;5099874;28;20094;-64
2023/04/26 07:12:56;;;;;;;8.80;5.35;;;;;;;9.50;49.88;101933.84;5099541;28;20058;-63
2023/04/26 07:15:24;;;;;;;11.27;4.90;;;;;;;9.67;49.59;101926.41;5098956;28;20076;-64
2023/04/26 07:17:52;;;;;;;9.65;4.63;;;;;;;9.79;49.82;101924.88;5096819;28;20095;-64
2023/04/26 07:20:21;;;;;;;7.60;4.57;;;;;;;9.91;49.59;101926.06;5093267;28;20146;-66
2023/04/26 07:22:49;;;;;;;10.15;4.80;;;;;;;10.01;48.90;101921.19;5100406;28;20114;-65
2023/04/26 07:25:18;;;;;;;10.00;4.25;;;;;;;10.13;48.68;101918.81;5096283;28;20105;-67
2023/04/26 07:27:46;;;;;;;7.72;4.85;;;;;;;10.19;48.54;101931.50;5099502;28;20056;-62
2023/04/26 07:30:15;;;;;;;9.40;4.40;;;;;;;10.22;48.66;101928.44;5098377;28;20135;-68
2023/04/26 07:32:42;;;;;;;7.35;3.58;;;;;;;10.23;48.91;101924.75;5098444;28;20048;-64
2023/04/26 07:35:14;;;;;;;11.18;3.67;;;;;;;10.25;48.61;101922.69;5096755;28;20154;-67
2023/04/26 07:37:43;;;;;;;8.75;3.80;;;;;;;10.30;48.73;101920.25;5091890;28;20796;-63
2023/04/26 07:40:12;;;;;;;7.70;3.53;;;;;;;10.35;48.70;101915.13;5094426;28;20048;-63
2023/04/26 07:42:42;;;;;;;9.90;3.60;;;;;;;10.35;48.44;101901.69;5098448;28;20139;-65
2023/04/26 07:45:10;;;;;;;6.65;3.05;;;;;;;10.47;48.08;101912.72;5095931;28;20062;-64
2023/04/26 07:47:38;;;;;;;7.38;3.63;;;;;;;10.50;48.38;101906.13;5090704;28;20080;-66
2023/04/26 07:50:07;;;;;;;6.40;3.30;;;;;;;10.59;48.09;101908.47;5095819;28;20373;-64
2023/04/26 07:52:35;;;;;;;9.93;3.35;;;;;;;10.65;48.14;101902.31;5098446;28;20070;-64
2023/04/26 07:55:03;;;;;;;8.98;3.40;;;;;;;10.73;47.89;101910.22;5095983;28;20469;-65
2023/04/26 07:57:31;;;;;;;10.57;3.45;;;;;;;10.75;47.98;101908.16;5087630;28;20088;-64
2023/04/26 08:00:00;;;;;;;5.90;3.33;;;;;;;10.67;48.32;101918.22;5091913;28;20048;-63
2023/04/26 08:02:28;;;;;;;5.72;3.03;;;;;;;10.53;48.26;101919.16;5089855;28;20048;-64
2023/04/26 08:05:11;;;;;;;7.43;3.13;;;;;;;10.37;49.26;101917.63;5091242;28;20060;-64
2023/04/26 08:07:39;;;;;;;6.88;2.75;;;;;;;10.20;49.31;101918.91;5098489;28;20628;-65
2023/04/26 08:10:07;;;;;;;10.32;3.50;;;;;;;10.05;50.06;101935.06;5094437;28;20116;-65
2023/04/26 08:12:36;;;;;;;10.32;2.72;;;;;;;9.86;50.26;101933.84;5089487;28;20054;-64
2023/04/26 08:15:07;;;;;;;8.82;3.20;;;;;;;9.75;50.61;101939.72;5099731;28;20079;-65
2023/04/26 08:17:34;;;;;;;5.57;3.00;;;;;;;9.62;50.93;101940.41;5095169;28;20055;-64
2023/04/26 08:20:03;;;;;;;9.43;2.95;;;;;;;9.53;51.30;101944.22;5093720;28;20049;-64
2023/04/26 08:22:31;;;;;;;5.35;2.33;;;;;;;9.44;51.23;101938.13;5084528;28;20075;-64
2023/04/26 08:24:59;;;;;;;10.25;2.40;;;;;;;9.38;50.91;101933.50;5091510;28;20075;-63
2023/04/26 08:27:27;;;;;;;6.30;2.13;;;;;;;9.36;51.22;101929.34;5094609;28;20107;-63
2023/04/26 08:29:55;;;;;;;6.18;2.13;;;;;;;9.34;51.61;101936.75;5090960;28;20053;-63
2023/04/26 08:32:24;;;;;;;7.55;2.50;;;;;;;9.30;51.30;101920.19;5092707;28;20055;-63
2023/04/26 08:34:52;;;;;;;9.63;2.58;;;;;;;9.28;51.71;101932.13;5091803;28;20122;-62
2023/04/26 08:37:20;;;;;;;9.13;2.85;;;;;;;9.27;51.76;101927.78;5095706;28;20059;-65
2023/04/26 08:39:48;;;;;;;3.30;1.80;;;;;;;9.27;51.95;101930.47;5086688;28;20068;-66
2023/04/26 08:42:17;;;;;;;5.03;2.35;;;;;;;9.27;51.45;101930.47;5098627;28;20108;-66
2023/04/26 08:44:45;;;;;;;7.28;3.10;;;;;;;9.25;51.75;101927.13;5098500;28;20048;-66
2023/04/26 08:47:18;;;;;;;3.40;2.00;;;;;;;9.26;51.81;101921.59;5087853;28;20051;-64
2023/04/26 08:49:51;;;;;;;5.18;2.45;;;;;;;9.17;51.96;101908.47;5083094;28;20040;-65
2023/04/26 08:52:22;;;;;;;4.80;2.00;;;;;;;9.22;51.83;101922.13;5090513;28;20488;-65
2023/04/26 08:54:51;;;;;;;4.50;1.90;;;;;;;9.18;51.67;101916.31;5100077;28;20101;-66
2023/04/26 08:57:19;;;;;;;5.10;1.92;;;;;;;9.16;51.69;101915.66;5090484;28;20075;-65
2023/04/26 08:59:48;;;;;;;4.53;1.83;;;;;;;9.16;51.76;101920.19;5099646;28;20501;-67
2023/04/26 09:02:18;;;;;;;8.15;2.17;;;;;;;9.35;51.29;101927.69;5087685;28;20377;-65
2023/04/26 09:04:49;;;;;;;4.50;1.58;;;;;;;9.55;50.67;101928.75;5092244;28;20055;-64
2023/04/26 09:07:21;;;;;;;8.55;1.88;;;;;;;9.78;49.64;101931.28;5097237;28;20139;-65
2023/04/26 09:09:50;;;;;;;3.95;1.70;;;;;;;9.94;49.23;101920.28;5094283;28;20066;-64
2023/04/26 09:12:20;;;;;;;6.82;1.70;;;;;;;10.09;48.10;101918.38;5089727;28;20677;-65
2023/04/26 09:14:48;;;;;;;6.38;1.95;;;;;;;10.34;47.68;101910.78;5088736;28;20044;-65
2023/04/26 09:17:26;;;;;;;5.25;1.70;;;;;;;10.63;46.77;101906.22;5094367;28;20044;-66
2023/04/26 09:19:55;;;;;;;4.45;1.48;;;;;;;10.88;46.22;101915.47;5101530;28;20083;-66
2023/04/26 09:22:31;;;;;;;7.70;2.58;;;;;;;10.92;45.87;101899.78;5099669;28;20108;-65
2023/04/26 09:24:59;;;;;;;4.65;1.50;;;;;;;10.82;46.37;101904.69;5102728;28;20139;-67
2023/04/26 09:27:35;;;;;;;5.85;2.00;;;;;;;10.66;46.83;101903.13;5087657;28;20045;-65
2023/04/26 09:30:06;;;;;;;2.42;1.30;;;;;;;10.49;47.57;101909.81;5089803;28;20048;-66
2023/04/26 09:32:52;;;;;;;4.78;2.20;;;;;;;10.29;47.35;101907.00;5098552;28;20190;-66
2023/04/26 09:35:27;;;;;;;4.65;1.42;;;;;;;10.19;48.04;101904.63;5101818;28;20082;-66
2023/04/26 09:37:57;;;;;;;7.00;2.35;;;;;;;10.01;47.78;101909.63;5098890;28;20067;-66
2023/04/26 09:40:33;;;;;;;5.28;2.33;;;;;;;9.91;47.73;101912.63;5101824;28;20044;-67
2023/04/26 09:43:03;;;;;;;4.53;1.70;;;;;;;9.88;48.43;101909.50;5100689;28;20135;-66
2023/04/26 09:45:33;;;;;;;6.60;2.00;;;;;;;9.87;48.68;101918.56;5101451;28;20059;-66
2023/04/26 09:48:20;;;;;;;9.07;2.20;;;;;;;9.84;48.72;101914.41;5101545;28;20087;-67
2023/04/26 09:50:52;;;;;;;5.90;2.30;;;;;;;9.83;48.24;101917.28;5087812;28;20087;-66
2023/04/26 09:53:33;;;;;;;4.60;2.10;;;;;;;9.82;48.97;101908.41;5099726;28;20070;-67
2023/04/26 09:56:08;;;;;;;6.60;2.40;;;;;;;9.83;49.02;101902.00;5098347;28;20052;-67
2023/04/26 09:58:37;;;;;;;4.25;1.60;;;;;;;9.85;49.13;101904.50;5100211;28;20417;-66
2023/04/26 10:01:07;;;;;;;4.38;2.15;;;;;;;9.87;49.16;101907.81;5101592;28;20480;-66
2023/04/26 10:03:36;;;;;;;5.78;1.60;;;;;;;9.88;49.75;101904.13;5099158;28;20101;-66
2023/04/26 10:06:07;;;;;;;7.15;1.95;;;;;;;9.89;49.50;101900.41;5099569;28;20126;-65
2023/04/26 10:08:36;;;;;;;4.93;1.60;;;;;;;9.91;50.14;101895.69;5099580;28;20167;-66
2023/04/26 10:11:06;;;;;;;2.75;1.45;;;;;;;9.85;50.19;101889.22;5100500;28;20042;-66
2023/04/26 10:13:34;;;;;;;5.88;1.70;;;;;;;9.91;50.16;101903.75;5098953;28;20051;-66
2023/04/26 10:16:03;;;;;;;6.38;2.00;;;;;;;9.91;49.59;101904.56;5088487;28;20456;-67
2023/04/26 10:18:32;;;;;;;5.07;1.75;;;;;;;9.90;49.46;101905.59;5099175;28;20138;-67
2023/04/26 10:21:03;;;;;;;5.00;1.73;;;;;;;9.95;49.80;101905.03;5100109;28;20044;-67
2023/04/26 10:23:32;;;;;;;5.15;1.70;;;;;;;9.94;50.09;101896.13;5097398;28;20214;-68
2023/04/26 10:26:00;;;;;;;4.60;1.52;;;;;;;9.95;49.47;101905.03;5100877;28;20061;-66
2023/04/26 10:28:55;;;;;;;5.85;1.80;;;;;;;9.97;50.25;101900.28;5097743;28;20080;-66
2023/04/26 10:32:02;;;;;;;7.97;1.85;;;;;;;9.95;49.92;101892.41;5098443;28;20123;-66
2023/04/26 10:34:31;;;;;;;5.00;1.70;;;;;;;9.97;49.83;101895.75;5098474;28;20120;-67
2023/04/26 10:37:12;;;;;;;6.70;1.70;;;;;;;9.98;49.59;101893.88;5099359;28;20351;-68
2023/04/26 10:39:42;;;;;;;3.17;1.25;;;;;;;9.98;49.59;101888.53;5099009;28;20085;-67
2023/04/26 10:42:24;;;;;;;6.18;1.52;;;;;;;9.99;49.74;101891.00;5099805;28;20078;-67
2023/04/26 10:44:54;;;;;;;9.77;2.05;;;;;;;9.99;49.28;101884.81;5098755;28;20434;-66
2023/04/26 10:47:35;;;;;;;5.47;1.40;;;;;;;10.00;48.92;101881.09;5100233;28;20047;-67
2023/04/26 10:50:06;;;;;;;6.47;2.65;;;;;;;9.99;48.82;101882.13;5086464;28;20052;-67
2023/04/26 10:52:34;;;;;;;4.88;1.75;;;;;;;9.97;48.09;101879.63;5098385;28;20083;-67
2023/04/26 10:55:05;;;;;;;5.05;1.73;;;;;;;10.00;48.42;101873.03;5099657;28;20501;-66
2023/04/26 10:57:50;;;;;;;2.88;1.48;;;;;;;10.01;48.27;101877.41;5097542;28;20052;-67
2023/04/26 11:00:29;;;;;;;6.15;1.85;;;;;;;10.01;48.13;101878.22;5099752;28;20066;-66
2023/04/26 11:03:04;;;;;;;3.80;1.42;;;;;;;9.96;46.74;101877.97;5100462;28;20116;-66
2023/04/26 11:05:47;;;;;;;7.28;1.98;;;;;;;9.95;46.24;101872.78;5095997;28;20047;-66
2023/04/26 11:08:17;;;;;;;5.75;1.77;;;;;;;9.98;47.38;101872.41;5099326;28;20112;-64
2023/04/26 11:10:52;;;;;;;4.25;1.63;;;;;;;10.02;47.90;101877.19;5098921;28;20103;-66
2023/04/26 11:13:20;;;;;;;4.57;1.73;;;;;;;10.04;46.63;101875.16;5098787;28;20068;-66
2023/04/26 11:15:52;;;;;;;5.80;2.00;;;;;;;10.04;46.57;101861.72;5098514;28;20040;-66
2023/04/26 11:18:21;;;;;;;4.53;2.47;;;;;;;10.05;47.11;101862.56;5100278;28;20048;-66
2023/04/26 11:20:49;;;;;;;4.80;1.85;;;;;;;10.04;46.53;101861.72;5097834;28;20097;-65
2023/04/26 11:23:18;;;;;;;8.25;1.90;;;;;;;10.10;46.74;101855.59;5098435;28;20135;-64
2023/04/26 11:25:48;;;;;;;7.78;1.95;;;;;;;10.11;46.53;101865.31;5086793;28;20040;-64
2023/04/26 11:28:16;;;;;;;3.47;1.83;;;;;;;10.14;46.58;101866.78;5097968;28;20096;-65
2023/04/26 11:30:43;;;;;;;4.85;1.58;;;;;;;10.15;47.10;101856.84;5099061;28;20050;-64
2023/04/26 11:33:17;;;;;;;5.10;1.73;;;;;;;10.14;47.30;101850.66;5099644;28;20048;-66
2023/04/26 11:35:46;;;;;;;4.13;1.83;;;;;;;10.17;46.50;101852.94;5095588;28;20052;-67
2023/04/26 11:38:14;;;;;;;9.20;2.00;;;;;;;10.19;47.27;101847.38;5098786;28;20048;-66
2023/04/26 11:40:43;;;;;;;3.63;1.85;;;;;;;10.22;47.26;101847.84;5098305;28;20055;-67
2023/04/26 11:43:14;;;;;;;6.28;1.75;;;;;;;10.23;46.57;101844.16;5098610;28;20051;-66
2023/04/26 11:45:42;;;;;;;6.95;1.88;;;;;;;10.25;47.37;101834.03;5098788;28;20070;-66
2023/04/26 11:48:12;;;;;;;4.63;2.47;;;;;;;10.28;47.52;101840.88;5098938;28;20067;-66
2023/04/26 11:50:41;;;;;;;7.95;2.38;;;;;;;10.26;47.09;101838.38;5098428;28;20079;-66
2023/04/26 11:53:09;;;;;;;4.30;1.98;;;;;;;10.25;46.06;101849.31;5097743;28;20044;-66
2023/04/26 11:55:39;;;;;;;8.10;1.98;;;;;;;10.21;45.66;101846.19;5101218;28;20052;-66
2023/04/26 11:58:12;;;;;;;5.25;1.90;;;;;;;10.22;46.45;101849.72;5101579;28;20101;-67
2023/04/26 12:00:56;;;;;;;7.75;2.03;;;;;;;10.26;45.85;101854.50;5096094;28;20044;-66
2023/04/26 12:03:26;;;;;;;5.97;2.20;;;;;;;10.29;46.42;101861.34;5104124;28;20075;-66
2023/04/26 12:05:55;;;;;;;3.47;1.60;;;;;;;10.32;46.63;101852.88;5099709;28;20073;-66
2023/04/26 12:08:24;;;;;;;4.97;2.33;;;;;;;10.33;46.37;101860.75;5092700;28;20112;-66
2023/04/26 12:10:52;;;;;;;11.02;2.50;;;;;;;10.36;45.98;101852.31;5100291;28;20127;-66
2023/04/26 12:13:22;;;;;;;6.45;2.20;;;;;;;10.37;45.89;101853.13;5102691;28;20052;-66
2023/04/26 12:15:51;;;;;;;7.72;2.38;;;;;;;10.37;46.11;101848.59;5100792;28;20064;-66
2023/04/26 12:18:19;;;;;;;5.50;2.50;;;;;;;10.38;45.49;101844.03;5102616;28;20567;-66
2023/04/26 12:20:47;;;;;;;7.30;3.05;;;;;;;10.37;45.71;101851.28;5088443;28;20079;-67
2023/04/26 12:23:16;;;;;;;6.25;2.80;;;;;;;10.36;45.26;101846.94;5102333;28;20187;-67
2023/04/26 12:25:53;;;;;;;10.02;2.60;;;;;;;10.36;45.32;101848.78;5098969;28;20056;-66
2023/04/26 12:28:24;;;;;;;6.78;2.50;;;;;;;10.35;44.91;101842.56;5102529;28;20487;-67
2023/04/26 12:30:52;;;;;;;5.15;2.05;;;;;;;10.38;44.63;101858.31;5101165;28;20511;-67
2023/04/26 12:33:21;;;;;;;7.78;2.53;;;;;;;10.40;45.03;101850.84;5102156;28;20556;-67
2023/04/26 12:35:50;;;;;;;5.95;2.80;;;;;;;10.42;44.71;101861.41;5100420;28;20131;-66
2023/04/26 12:38:18;;;;;;;8.60;2.45;;;;;;;10.40;44.62;101856.22;5101936;28;20052;-66
2023/04/26 12:40:46;;;;;;;7.18;2.58;;;;;;;10.33;45.11;101841.94;5096405;28;20074;-66
2023/04/26 12:43:15;;;;;;;5.75;2.78;;;;;;;10.41;44.98;101860.56;5102238;28;20044;-66
2023/04/26 12:45:44;;;;;;;4.55;2.00;;;;;;;10.41;44.75;101852.50;5101287;28;20351;-67
2023/04/26 12:48:12;;;;;;;6.53;2.63;;;;;;;10.42;44.77;101856.03;5102762;28;20044;-67
2023/04/26 12:50:41;;;;;;;6.60;2.47;;;;;;;10.43;44.62;101855.00;5099973;28;20040;-66
2023/04/26 12:53:09;;;;;;;4.85;2.45;;;;;;;10.43;44.93;101863.91;5102728;28;20107;-67
2023/04/26 12:55:37;;;;;;;7.43;2.72;;;;;;;10.45;44.72;101863.69;5102239;28;20051;-67